Time;durP1;ratioP1;P1;durP2;ratioP2;P2;SDS_P1;SDS_P2;PMS_P1;PMS_P2;Temp;Humidity;BMP_temperature;BMP_pressure;BME280_temperature;BME280_humidity;BME280_pressure;Samples;Min_cycle;Max_cycle;Signal;HPM_P1;HPM_P2
2022/08/23 00:01:38;;;;;;;6.32;3.38;;;;;;;16.59;72.96;96207.88;4966992;28;20061;-81
2022/08/23 00:04:08;;;;;;;4.38;3.05;;;;;;;16.58;72.44;96206.28;4984651;28;20066;-82
2022/08/23 00:06:34;;;;;;;6.95;3.00;;;;;;;16.61;73.19;96208.34;4966431;28;20050;-82
2022/08/23 00:09:03;;;;;;;5.68;3.20;;;;;;;16.62;73.15;96204.44;4982083;28;20053;-82
2022/08/23 00:11:35;;;;;;;5.65;3.25;;;;;;;16.64;74.22;96211.13;4980044;28;20039;-82
2022/08/23 00:14:07;;;;;;;6.53;3.00;;;;;;;16.61;74.24;96206.38;4981553;28;20050;-80
2022/08/23 00:16:34;;;;;;;4.20;2.95;;;;;;;16.65;74.00;96209.19;4983872;28;20043;-81
2022/08/23 00:19:01;;;;;;;11.63;2.90;;;;;;;16.63;72.99;96209.56;4982649;28;20046;-81
2022/08/23 00:21:29;;;;;;;5.25;2.90;;;;;;;16.63;73.14;96219.75;4983277;28;20042;-81
2022/08/23 00:23:55;;;;;;;10.20;3.45;;;;;;;16.65;74.06;96203.69;4998841;28;20073;-81
2022/08/23 00:26:24;;;;;;;5.15;2.83;;;;;;;16.65;73.88;96207.25;4983249;28;20046;-81
2022/08/23 00:28:51;;;;;;;5.10;2.97;;;;;;;16.69;74.09;96212.81;4982508;28;20053;-81
2022/08/23 00:31:17;;;;;;;5.05;2.80;;;;;;;16.67;72.79;96206.88;4982317;28;20050;-82
2022/08/23 00:33:44;;;;;;;6.30;3.13;;;;;;;16.63;73.69;96209.56;4982048;28;20051;-82
2022/08/23 00:36:11;;;;;;;10.20;3.50;;;;;;;16.59;73.94;96207.88;4979910;28;20051;-81
2022/08/23 00:38:37;;;;;;;7.20;3.20;;;;;;;16.62;74.05;96215.41;4982670;28;20057;-82
2022/08/23 00:41:04;;;;;;;5.47;3.25;;;;;;;16.59;73.55;96208.69;4995200;28;20057;-82
2022/08/23 00:49:21;;;;;;;5.10;3.00;;;;;;;16.52;78.23;96210.50;4962532;28;20074;-82
2022/08/23 00:51:56;;;;;;;4.75;3.30;;;;;;;16.48;78.14;96206.84;4944038;29;20126;-82
2022/08/23 00:54:26;;;;;;;4.80;2.97;;;;;;;16.50;77.98;96199.06;4961257;28;20055;-82
2022/08/23 00:56:55;;;;;;;6.85;2.95;;;;;;;16.43;76.47;96195.00;4950101;29;20048;-81
2022/08/23 00:59:24;;;;;;;4.88;3.70;;;;;;;16.36;76.27;96205.84;4964195;28;20119;-82
2022/08/23 01:01:51;;;;;;;6.70;3.05;;;;;;;16.27;76.43;96210.72;4968391;28;20047;-82
2022/08/23 01:04:18;;;;;;;6.82;3.40;;;;;;;16.23;76.89;96207.09;4970283;28;20055;-82
2022/08/23 01:06:51;;;;;;;8.88;3.75;;;;;;;16.16;76.84;96204.19;4968406;28;20048;-82
2022/08/23 01:09:20;;;;;;;8.90;4.10;;;;;;;16.09;77.73;96212.28;4965869;28;20062;-81
2022/08/23 01:11:53;;;;;;;9.02;4.20;;;;;;;16.01;78.07;96210.50;4962040;28;20138;-81
2022/08/23 01:14:27;;;;;;;6.70;4.28;;;;;;;15.98;78.91;96208.50;4964080;28;20059;-82
2022/08/23 01:16:57;;;;;;;5.75;3.72;;;;;;;15.91;78.37;96207.13;4962005;28;20066;-81
2022/08/23 01:19:28;;;;;;;6.88;4.00;;;;;;;15.86;78.21;96204.66;4959437;28;20043;-81
2022/08/23 01:22:00;;;;;;;7.15;4.25;;;;;;;15.84;78.22;96209.72;4963233;28;20495;-81
2022/08/23 01:24:29;;;;;;;7.00;4.20;;;;;;;15.83;78.23;96204.59;4968406;28;20047;-81
2022/08/23 01:26:55;;;;;;;6.68;4.10;;;;;;;15.80;78.63;96205.31;4971401;28;20054;-82
2022/08/23 01:29:24;;;;;;;6.75;4.28;;;;;;;15.80;78.71;96206.09;4961599;28;20059;-82
2022/08/23 01:31:51;;;;;;;4.95;3.70;;;;;;;15.86;78.88;96204.66;4972581;28;20052;-82
2022/08/23 01:34:18;;;;;;;5.65;4.00;;;;;;;15.94;79.29;96204.84;4971497;28;20057;-82
2022/08/23 01:36:45;;;;;;;6.35;3.92;;;;;;;16.00;78.54;96208.91;4969437;28;20079;-82
2022/08/23 01:39:12;;;;;;;5.35;4.18;;;;;;;16.04;77.65;96207.06;4970791;28;20043;-82
2022/08/23 01:41:40;;;;;;;7.60;4.65;;;;;;;16.05;77.63;96208.66;4972659;28;20043;-82
2022/08/23 01:44:07;;;;;;;5.28;3.90;;;;;;;16.07;77.97;96214.56;4970232;28;20058;-81
2022/08/23 01:46:35;;;;;;;12.57;5.20;;;;;;;16.04;77.16;96209.81;4973583;28;20071;-82
2022/08/23 01:49:02;;;;;;;5.13;4.03;;;;;;;16.00;78.02;96214.41;4991831;28;20047;-77
2022/08/23 01:51:29;;;;;;;5.45;4.30;;;;;;;16.01;78.91;96216.00;4992748;28;20055;-82
2022/08/23 01:53:56;;;;;;;12.45;4.60;;;;;;;16.04;79.79;96218.03;4992899;28;20050;-83
2022/08/23 01:56:24;;;;;;;6.53;4.80;;;;;;;15.98;81.18;96216.72;4992379;28;20053;-82
2022/08/23 01:58:52;;;;;;;9.95;5.03;;;;;;;15.88;81.53;96218.84;4992296;28;20057;-82
2022/08/23 02:01:19;;;;;;;6.55;5.32;;;;;;;15.86;81.15;96215.66;4990603;28;20053;-81
2022/08/23 02:03:45;;;;;;;8.23;5.32;;;;;;;15.82;81.31;96219.50;4988271;28;20058;-82
2022/08/23 02:06:12;;;;;;;8.30;5.22;;;;;;;15.81;80.96;96217.88;4988496;28;20074;-81
2022/08/23 02:11:24;;;;;;;8.00;4.68;;;;;;;15.79;80.78;96220.97;4990706;28;20101;-82
2022/08/23 02:13:55;;;;;;;11.50;5.90;;;;;;;15.82;81.08;96217.53;4989662;28;20050;-81
2022/08/23 02:16:24;;;;;;;10.32;6.40;;;;;;;15.80;80.69;96222.56;4986941;28;20065;-83
2022/08/23 02:18:51;;;;;;;8.25;5.07;;;;;;;15.77;80.38;96217.81;4990507;28;20053;-83
2022/08/23 02:21:18;;;;;;;8.02;5.38;;;;;;;15.78;81.10;96219.38;4989696;28;20051;-82
2022/08/23 02:23:45;;;;;;;8.27;5.95;;;;;;;15.79;81.13;96223.72;4984655;28;20050;-82
2022/08/23 02:26:13;;;;;;;9.88;5.25;;;;;;;15.76;80.66;96227.16;4997472;28;20054;-82
2022/08/23 02:28:40;;;;;;;14.93;5.90;;;;;;;15.75;80.72;96220.09;4990306;28;20067;-82
2022/08/23 02:31:08;;;;;;;9.20;6.03;;;;;;;15.73;80.33;96222.41;4988621;28;20046;-81
2022/08/23 02:33:34;;;;;;;9.82;6.13;;;;;;;15.75;80.21;96225.56;4987636;28;20047;-80
2022/08/23 02:36:01;;;;;;;8.48;5.32;;;;;;;15.71;79.99;96230.19;4988619;28;20046;-82
2022/08/23 02:38:28;;;;;;;8.50;5.38;;;;;;;15.74;79.72;96223.19;4987979;28;20130;-82
2022/08/23 02:40:54;;;;;;;7.97;5.47;;;;;;;15.69;79.73;96232.50;4988430;28;20051;-83
2022/08/23 02:43:22;;;;;;;9.45;5.40;;;;;;;15.70;79.94;96241.50;4987822;28;20346;-81
2022/08/23 02:45:51;;;;;;;8.57;5.65;;;;;;;15.67;80.05;96239.50;4987517;28;20051;-81
2022/08/23 02:48:19;;;;;;;10.80;5.80;;;;;;;15.68;80.30;96241.88;5000898;28;20050;-81
2022/08/23 02:50:46;;;;;;;12.50;5.85;;;;;;;15.66;80.55;96238.69;5005886;28;20050;-81
2022/08/23 02:53:13;;;;;;;7.53;5.68;;;;;;;15.66;81.10;96238.69;5006950;28;20050;-82
2022/08/23 02:55:41;;;;;;;9.02;5.43;;;;;;;15.62;80.88;96243.25;5007017;28;20046;-80
2022/08/23 02:58:07;;;;;;;8.23;5.15;;;;;;;15.61;80.93;96236.97;5007117;28;20053;-81
2022/08/23 03:00:34;;;;;;;10.95;5.60;;;;;;;15.62;80.66;96243.25;5007381;28;20057;-80
2022/08/23 03:03:00;;;;;;;7.72;5.70;;;;;;;15.58;80.35;96245.91;5007873;28;20060;-83
2022/08/23 03:05:30;;;;;;;8.77;5.05;;;;;;;15.54;80.32;96238.72;5006414;28;20057;-82
2022/08/23 03:07:56;;;;;;;8.60;5.20;;;;;;;15.52;80.33;96243.78;5008137;28;20046;-82
2022/08/23 03:10:23;;;;;;;10.25;6.22;;;;;;;15.52;81.59;96236.34;4989758;28;20042;-80
2022/08/23 03:12:50;;;;;;;9.55;5.78;;;;;;;15.53;82.24;96239.88;5005829;28;20046;-81
2022/08/23 03:15:17;;;;;;;10.57;6.28;;;;;;;15.50;81.55;96237.84;4988453;28;20050;-81
2022/08/23 03:17:49;;;;;;;10.40;6.30;;;;;;;15.46;81.39;96240.50;5007036;28;20057;-81
2022/08/23 03:20:20;;;;;;;10.07;6.60;;;;;;;15.39;81.31;96241.09;5008205;28;20054;-82
2022/08/23 03:22:48;;;;;;;10.90;6.53;;;;;;;15.42;82.34;96238.81;4989506;28;20081;-82
2022/08/23 03:25:17;;;;;;;12.15;6.93;;;;;;;15.42;81.36;96247.84;5000266;28;20051;-81
2022/08/23 03:27:44;;;;;;;10.15;5.97;;;;;;;15.36;81.50;96239.06;5000423;28;20049;-82
2022/08/23 03:30:11;;;;;;;10.75;6.47;;;;;;;15.27;81.86;96243.13;4987150;28;20046;-81
2022/08/23 03:32:39;;;;;;;10.60;6.20;;;;;;;15.28;82.07;96244.72;5006887;28;20058;-80
2022/08/23 03:35:07;;;;;;;9.35;5.78;;;;;;;15.21;81.72;96248.06;5005186;28;20050;-80
2022/08/23 03:37:33;;;;;;;12.05;6.20;;;;;;;15.14;81.88;96251.41;5005700;28;20042;-82
2022/08/23 03:40:03;;;;;;;8.13;6.05;;;;;;;15.10;82.22;96260.69;5004568;28;20691;-81
2022/08/23 03:42:29;;;;;;;8.95;5.70;;;;;;;15.03;82.15;96252.25;4994856;28;20134;-80
2022/08/23 03:44:56;;;;;;;11.25;6.13;;;;;;;14.98;82.69;96257.97;5005060;28;20057;-80
2022/08/23 03:47:22;;;;;;;11.30;6.13;;;;;;;14.92;83.11;96260.16;5004625;28;20115;-80
2022/08/23 03:49:56;;;;;;;10.18;6.47;;;;;;;14.87;83.52;96258.47;4988585;28;20062;-81
2022/08/23 03:52:23;;;;;;;9.52;6.43;;;;;;;14.84;83.79;96264.66;4967388;28;20043;-81
2022/08/23 03:54:50;;;;;;;9.85;6.28;;;;;;;14.79;83.59;96273.13;4971803;28;20054;-81
2022/08/23 03:57:18;;;;;;;10.82;6.93;;;;;;;14.75;84.39;96266.72;4966868;28;20054;-79
2022/08/23 03:59:45;;;;;;;9.85;6.68;;;;;;;14.72;84.62;96275.66;4966441;28;20047;-81
2022/08/23 04:02:12;;;;;;;9.23;6.28;;;;;;;14.63;84.68;96280.47;4966502;28;20291;-81
2022/08/23 04:04:38;;;;;;;14.73;7.90;;;;;;;14.53;84.65;96275.47;4966215;28;20061;-81
2022/08/23 04:07:05;;;;;;;13.65;7.35;;;;;;;14.45;84.92;96284.56;4968276;28;20055;-80
2022/08/23 04:09:32;;;;;;;13.02;7.15;;;;;;;14.40;84.95;96276.59;4967126;28;20051;-80
2022/08/23 04:11:58;;;;;;;13.35;7.47;;;;;;;14.34;85.09;96285.03;4966616;28;20047;-82
2022/08/23 04:14:26;;;;;;;9.70;7.00;;;;;;;14.36;85.75;96282.78;4948855;28;20047;-82
2022/08/23 04:16:52;;;;;;;11.00;7.63;;;;;;;14.36;85.72;96287.44;4965592;28;20039;-81
2022/08/23 04:19:20;;;;;;;10.25;7.13;;;;;;;14.31;85.17;96291.22;4964191;28;20054;-81
2022/08/23 04:21:50;;;;;;;9.95;6.95;;;;;;;14.25;85.19;96298.06;4979308;28;20134;-81
2022/08/23 04:24:17;;;;;;;9.65;6.60;;;;;;;14.24;85.43;96292.91;4963677;28;20049;-81
2022/08/23 04:26:44;;;;;;;10.63;6.63;;;;;;;14.22;85.20;96293.28;4964473;28;20080;-80
2022/08/23 04:29:15;;;;;;;10.95;6.90;;;;;;;14.00;85.56;96302.75;4967208;28;20043;-80
2022/08/23 04:31:43;;;;;;;10.45;6.70;;;;;;;13.90;86.13;96308.66;4964879;28;20074;-80
2022/08/23 04:34:10;;;;;;;10.02;6.72;;;;;;;13.93;86.27;96307.16;4963862;28;20043;-81
2022/08/23 04:36:39;;;;;;;12.15;6.47;;;;;;;13.82;86.19;96307.59;4965517;28;20051;-81
2022/08/23 04:39:06;;;;;;;11.65;6.97;;;;;;;13.77;86.31;96313.28;4965451;28;20051;-80
2022/08/23 04:44:17;;;;;;;11.15;6.80;;;;;;;13.71;85.87;96316.59;4965664;28;20058;-80
2022/08/23 04:46:47;;;;;;;11.57;6.68;;;;;;;13.61;85.83;96323.28;4968477;28;20047;-80
2022/08/23 04:49:14;;;;;;;14.05;6.93;;;;;;;13.63;86.09;96320.25;4976004;28;20051;-83
2022/08/23 04:51:41;;;;;;;10.60;6.78;;;;;;;13.53;85.70;96322.25;4975920;28;20050;-81
2022/08/23 04:54:07;;;;;;;10.98;7.03;;;;;;;13.54;85.85;96326.59;4975717;28;20047;-80
2022/08/23 04:56:34;;;;;;;10.40;6.60;;;;;;;13.58;85.95;96324.00;5042290;23;20062;-84
2022/08/23 04:59:01;;;;;;;8.10;6.22;;;;;;;13.70;86.39;96324.00;5016966;28;20077;-81
2022/08/23 05:01:28;;;;;;;9.07;6.63;;;;;;;13.76;86.46;96325.38;4998963;28;20095;-82
2022/08/23 05:03:57;;;;;;;9.00;6.55;;;;;;;13.82;86.17;96329.50;5013679;28;20046;-83
2022/08/23 05:06:25;;;;;;;11.40;6.50;;;;;;;13.87;86.37;96320.28;4995604;28;20046;-82
2022/08/23 05:11:17;;;;;;;14.77;7.30;;;;;;;14.04;86.74;96335.69;5198980;23;1319847;-80
2022/08/23 05:13:44;;;;;;;11.57;7.22;;;;;;;14.13;86.85;96333.66;4994872;28;20045;-80
2022/08/23 05:16:11;;;;;;;14.85;7.97;;;;;;;14.21;86.74;96334.69;4993724;28;20046;-78
2022/08/23 05:18:37;;;;;;;13.35;8.15;;;;;;;14.31;87.21;96335.03;4991331;28;20043;-79
2022/08/23 05:21:06;;;;;;;15.93;8.68;;;;;;;14.32;85.21;96333.91;4991758;28;20050;-78
2022/08/23 05:23:33;;;;;;;13.40;7.90;;;;;;;14.38;84.32;96339.16;4992343;28;20050;-79
2022/08/23 05:26:00;;;;;;;17.50;8.50;;;;;;;14.44;84.27;96340.50;4991678;28;20193;-78
2022/08/23 05:28:29;;;;;;;16.00;8.82;;;;;;;14.41;84.07;96339.28;4992239;28;20434;-78
2022/08/23 05:30:59;;;;;;;11.45;8.55;;;;;;;14.44;83.64;96337.78;4993069;28;20087;-78
2022/08/23 05:33:26;;;;;;;9.45;7.43;;;;;;;14.49;83.23;96340.31;4993163;28;20053;-78
2022/08/23 05:35:53;;;;;;;13.27;7.82;;;;;;;14.43;83.40;96336.19;4993463;28;20054;-79
2022/08/23 05:38:22;;;;;;;14.93;7.40;;;;;;;14.53;82.86;96341.22;4993124;28;20497;-77
2022/08/23 05:40:50;;;;;;;11.75;7.07;;;;;;;14.51;83.18;96340.75;4993484;28;20054;-78
2022/08/23 05:43:17;;;;;;;11.18;7.07;;;;;;;14.47;83.55;96339.84;4992824;28;20042;-79
2022/08/23 05:45:43;;;;;;;12.77;6.78;;;;;;;14.64;83.72;96342.34;4993182;28;20684;-78
2022/08/23 05:48:10;;;;;;;11.73;6.82;;;;;;;14.78;83.67;96347.50;4992665;28;20050;-78
2022/08/23 05:50:37;;;;;;;13.27;7.07;;;;;;;14.82;83.86;96357.41;4989027;28;20054;-78
2022/08/23 05:53:04;;;;;;;9.32;6.30;;;;;;;14.87;83.88;96359.91;4973636;28;20101;-78
2022/08/23 05:55:32;;;;;;;12.73;6.85;;;;;;;14.94;84.18;96353.06;4973884;28;20046;-78
2022/08/23 05:57:59;;;;;;;12.38;7.32;;;;;;;14.90;84.43;96355.69;4973824;28;20043;-79
2022/08/23 06:00:26;;;;;;;12.02;7.03;;;;;;;14.92;84.38;96355.34;4973198;28;20505;-78
2022/08/23 06:02:53;;;;;;;11.40;7.00;;;;;;;14.79;84.69;96354.56;4973732;28;20066;-78
2022/08/23 06:05:21;;;;;;;14.38;7.13;;;;;;;14.65;85.24;96360.41;4972753;28;20050;-79
2022/08/23 06:07:48;;;;;;;11.57;7.20;;;;;;;14.62;84.85;96361.09;4972926;28;20051;-78
2022/08/23 06:10:14;;;;;;;11.75;6.78;;;;;;;14.89;85.10;96365.06;4972274;28;20059;-79
2022/08/23 06:12:42;;;;;;;13.05;7.00;;;;;;;15.04;83.69;96369.03;4973301;28;20054;-79
2022/08/23 06:15:09;;;;;;;10.73;7.13;;;;;;;14.99;83.06;96372.81;4972789;28;20046;-79
2022/08/23 06:17:36;;;;;;;13.20;7.60;;;;;;;15.11;82.60;96370.03;4973190;28;20657;-80
2022/08/23 06:20:04;;;;;;;13.80;7.43;;;;;;;15.14;83.66;96372.09;4974019;28;20043;-79
2022/08/23 06:22:31;;;;;;;10.75;6.75;;;;;;;15.27;83.30;96372.84;4973065;28;20486;-79
2022/08/23 06:24:58;;;;;;;11.20;7.00;;;;;;;15.44;82.64;96374.50;4973243;28;20070;-79
2022/08/23 06:27:24;;;;;;;11.77;6.97;;;;;;;15.55;82.11;96380.28;4972573;28;20406;-79
2022/08/23 06:29:52;;;;;;;11.10;7.10;;;;;;;15.52;79.75;96370.03;4973239;28;20077;-78
2022/08/23 06:32:19;;;;;;;13.32;6.90;;;;;;;15.48;80.05;96369.13;4972583;28;20050;-79
2022/08/23 06:34:45;;;;;;;12.40;6.95;;;;;;;15.68;79.47;96373.63;4973004;28;20134;-78
2022/08/23 06:37:15;;;;;;;12.10;7.10;;;;;;;15.79;78.53;96373.94;4972533;28;20046;-79
2022/08/23 06:39:41;;;;;;;9.90;7.03;;;;;;;15.91;77.98;96382.09;4973192;28;20059;-78
2022/08/23 06:42:11;;;;;;;10.75;6.50;;;;;;;15.94;76.84;96386.09;4972735;28;20047;-78
2022/08/23 06:44:38;;;;;;;11.40;7.38;;;;;;;15.79;77.36;96368.44;4972944;28;20054;-78
2022/08/23 06:47:07;;;;;;;12.15;6.70;;;;;;;15.78;77.69;96384.13;4972191;28;20498;-78
2022/08/23 06:49:34;;;;;;;11.88;6.50;;;;;;;15.77;77.45;96376.25;4972825;28;20080;-78
2022/08/23 06:52:03;;;;;;;14.07;7.45;;;;;;;15.85;77.55;96378.81;4974313;28;20054;-79
2022/08/23 06:54:33;;;;;;;14.85;7.20;;;;;;;15.99;78.49;96394.09;4972581;28;20094;-79
2022/08/23 06:57:01;;;;;;;10.77;5.70;;;;;;;16.07;77.48;96384.88;4972780;28;20055;-79
2022/08/23 06:59:28;;;;;;;12.73;6.78;;;;;;;16.20;75.62;96389.16;4972487;28;20043;-78
2022/08/23 07:01:57;;;;;;;13.05;7.05;;;;;;;16.14;75.07;96390.56;4972751;28;20057;-79
2022/08/23 07:04:27;;;;;;;13.77;6.55;;;;;;;16.33;75.41;96393.41;4972060;28;20070;-79
2022/08/23 07:06:55;;;;;;;12.48;6.50;;;;;;;16.38;75.26;96401.38;4972303;28;20047;-79
2022/08/23 07:09:21;;;;;;;11.27;6.32;;;;;;;16.54;76.44;96404.13;4971790;28;20097;-78
2022/08/23 07:11:48;;;;;;;10.43;6.60;;;;;;;16.68;76.05;96403.69;4972562;28;20047;-79
2022/08/23 07:14:18;;;;;;;10.60;6.25;;;;;;;16.69;72.37;96405.28;4971674;28;20050;-79
2022/08/23 07:16:48;;;;;;;9.13;5.78;;;;;;;16.83;73.57;96411.16;4972390;28;20046;-78
2022/08/23 07:19:16;;;;;;;12.43;6.18;;;;;;;16.92;72.22;96402.72;4971717;28;20051;-79
2022/08/23 07:21:45;;;;;;;13.35;6.30;;;;;;;17.08;71.89;96399.94;4973515;28;20046;-78
2022/08/23 07:24:12;;;;;;;7.90;5.43;;;;;;;17.18;70.95;96410.38;4971538;28;20530;-78
2022/08/23 07:26:40;;;;;;;9.25;5.65;;;;;;;17.33;70.80;96409.53;4972051;28;20054;-79
2022/08/23 07:29:08;;;;;;;9.80;5.00;;;;;;;17.48;68.39;96414.16;4971665;28;20423;-79
2022/08/23 07:31:38;;;;;;;8.88;5.40;;;;;;;17.58;68.30;96418.31;4971937;28;20119;-79
2022/08/23 07:34:08;;;;;;;7.70;4.75;;;;;;;17.79;70.99;96417.97;4971477;28;20053;-78
2022/08/23 07:36:36;;;;;;;11.02;5.30;;;;;;;18.09;71.10;96414.63;4972080;28;20608;-79
2022/08/23 07:39:06;;;;;;;9.40;5.32;;;;;;;18.54;71.28;96413.88;4971308;28;20057;-79
2022/08/23 07:41:34;;;;;;;10.75;5.03;;;;;;;19.15;68.65;96414.84;4971902;28;20038;-78
2022/08/23 07:44:03;;;;;;;8.80;4.82;;;;;;;19.58;64.00;96421.78;4972029;28;20047;-78
2022/08/23 07:46:31;;;;;;;7.40;4.82;;;;;;;20.06;57.17;96431.06;4971763;28;20066;-78
2022/08/23 07:48:59;;;;;;;6.80;3.92;;;;;;;20.17;56.59;96431.19;4971723;28;20050;-77
2022/08/23 07:51:27;;;;;;;7.63;4.55;;;;;;;20.42;56.14;96431.44;4971340;28;20047;-80
2022/08/23 07:53:54;;;;;;;9.98;4.60;;;;;;;20.49;56.43;96427.97;4971878;28;20046;-81
2022/08/23 07:56:22;;;;;;;7.18;4.40;;;;;;;20.70;55.36;96433.72;4971466;28;20068;-80
2022/08/23 07:58:49;;;;;;;6.75;4.03;;;;;;;20.86;57.10;96438.97;4971732;28;20039;-80
2022/08/23 08:01:17;;;;;;;7.32;4.28;;;;;;;21.03;57.56;96432.78;4971332;28;20046;-79
2022/08/23 08:03:45;;;;;;;8.98;4.15;;;;;;;20.94;57.37;96432.34;4971723;28;20499;-78
2022/08/23 08:06:16;;;;;;;8.30;5.45;;;;;;;20.89;54.45;96437.44;4970946;28;20502;-78
2022/08/23 08:08:43;;;;;;;10.73;5.22;;;;;;;20.92;54.91;96431.13;4971705;28;20384;-78
2022/08/23 08:11:11;;;;;;;11.88;4.32;;;;;;;21.14;54.72;96443.94;4970915;28;20068;-78
2022/08/23 08:13:41;;;;;;;12.90;5.90;;;;;;;21.35;53.43;96443.31;4971739;28;20047;-77
2022/08/23 08:16:08;;;;;;;9.20;4.05;;;;;;;21.87;55.32;96442.03;4971075;28;20050;-78
2022/08/23 08:18:35;;;;;;;6.18;2.95;;;;;;;22.04;49.70;96451.59;4971398;28;20043;-79
2022/08/23 08:21:02;;;;;;;6.95;2.70;;;;;;;22.19;47.91;96446.16;4973372;28;20395;-78
2022/08/23 08:23:28;;;;;;;9.85;4.20;;;;;;;22.03;47.93;96450.03;4972073;28;20058;-79
2022/08/23 08:26:04;;;;;;;6.95;3.00;;;;;;;22.31;50.95;96443.00;4972527;28;20042;-79
2022/08/23 08:28:30;;;;;;;8.07;3.45;;;;;;;22.32;51.31;96444.59;4971394;28;20053;-78
2022/08/23 08:30:58;;;;;;;7.40;3.03;;;;;;;22.54;49.77;96446.22;4971539;28;20054;-78
2022/08/23 08:33:25;;;;;;;7.97;3.75;;;;;;;22.60;48.95;96450.22;4974484;28;20387;-78
2022/08/23 08:35:52;;;;;;;7.32;3.40;;;;;;;22.81;52.21;96452.22;4975667;28;20065;-78
2022/08/23 08:38:21;;;;;;;4.72;2.80;;;;;;;22.87;51.20;96447.84;4975023;28;20057;-79
2022/08/23 08:40:50;;;;;;;7.68;2.90;;;;;;;23.11;53.58;96457.41;4975743;28;20105;-78
2022/08/23 08:43:32;;;;;;;9.05;3.10;;;;;;;23.15;48.10;96447.09;4975018;28;20121;-78
2022/08/23 08:46:06;;;;;;;6.00;2.63;;;;;;;23.08;46.49;96462.97;4975343;28;20503;-79
2022/08/23 08:48:47;;;;;;;6.93;2.90;;;;;;;22.84;45.31;96458.94;4974929;28;20478;-78
2022/08/23 08:51:30;;;;;;;8.63;3.25;;;;;;;22.48;46.88;96458.09;4976318;28;20521;-79
2022/08/23 08:53:59;;;;;;;5.43;2.28;;;;;;;22.66;46.89;96456.97;4975341;28;20054;-78
2022/08/23 08:56:28;;;;;;;8.63;3.85;;;;;;;22.51;48.30;96447.03;4974570;28;20054;-78
2022/08/23 08:59:00;;;;;;;8.13;3.45;;;;;;;22.53;50.18;96450.19;4975308;28;20047;-78
2022/08/23 09:01:29;;;;;;;7.20;3.60;;;;;;;22.76;51.05;96447.06;4974615;28;20051;-80
2022/08/23 09:03:57;;;;;;;11.13;4.20;;;;;;;22.73;50.56;96447.06;4974954;28;20565;-79
2022/08/23 09:06:30;;;;;;;8.35;3.53;;;;;;;22.90;50.34;96447.06;4974817;28;20505;-79
2022/08/23 09:09:08;;;;;;;8.48;3.38;;;;;;;23.14;54.34;96445.50;4974788;28;20053;-80
2022/08/23 09:11:46;;;;;;;8.68;3.70;;;;;;;22.82;48.86;96450.22;4974443;28;20074;-78
2022/08/23 09:14:30;;;;;;;6.65;3.33;;;;;;;22.45;47.73;96440.28;4974501;28;20106;-78
2022/08/23 09:17:03;;;;;;;8.90;3.38;;;;;;;22.63;47.27;96441.09;4975270;28;20054;-78
2022/08/23 09:19:34;;;;;;;11.40;3.78;;;;;;;22.71;48.80;96443.84;4974776;28;20054;-78
2022/08/23 09:22:05;;;;;;;7.53;3.03;;;;;;;22.98;56.22;96447.88;4976598;28;20057;-78
2022/08/23 09:24:31;;;;;;;10.07;3.95;;;;;;;22.93;47.19;96442.72;4974818;28;20043;-78
2022/08/23 09:26:58;;;;;;;10.05;3.67;;;;;;;23.06;50.08;96445.88;4974529;28;20554;-80
2022/08/23 09:29:27;;;;;;;7.18;3.33;;;;;;;23.07;48.14;96439.94;4973924;28;20043;-79
2022/08/23 09:31:57;;;;;;;10.50;4.47;;;;;;;23.16;50.76;96432.00;4974464;28;20058;-78
2022/08/23 09:34:40;;;;;;;7.40;3.13;;;;;;;23.28;49.40;96433.56;4973765;28;20125;-80
2022/08/23 09:37:13;;;;;;;9.52;4.25;;;;;;;23.36;47.85;96434.38;4974052;28;20589;-80
2022/08/23 09:39:42;;;;;;;9.93;3.25;;;;;;;23.37;50.34;96430.38;4974519;28;20511;-80
2022/08/23 09:42:30;;;;;;;9.82;3.45;;;;;;;23.36;45.93;96434.38;4974417;28;20047;-79
2022/08/23 09:44:57;;;;;;;8.10;3.17;;;;;;;23.39;49.19;96433.56;4974454;28;20057;-80
2022/08/23 09:47:32;;;;;;;10.13;3.95;;;;;;;23.46;49.33;96432.75;4973799;28;20046;-80
2022/08/23 09:50:08;;;;;;;9.73;3.75;;;;;;;23.62;46.94;96431.13;4975092;28;20054;-80
2022/08/23 09:52:37;;;;;;;8.25;3.08;;;;;;;23.18;45.17;96429.63;4973949;28;20047;-81
2022/08/23 09:55:06;;;;;;;6.13;3.20;;;;;;;22.91;44.96;96436.75;4973734;28;20422;-77
2022/08/23 09:57:34;;;;;;;9.23;2.65;;;;;;;23.10;47.90;96430.03;4974385;28;20463;-82
2022/08/23 10:00:18;;;;;;;8.52;3.38;;;;;;;23.30;46.29;96424.84;4974290;28;20054;-78
2022/08/23 10:02:45;;;;;;;7.95;2.90;;;;;;;23.49;45.76;96432.75;4974006;28;20045;-80
2022/08/23 10:05:20;;;;;;;7.95;3.03;;;;;;;23.33;45.31;96435.94;4973104;28;20054;-78
2022/08/23 10:07:58;;;;;;;5.78;2.65;;;;;;;23.12;46.17;96428.41;4974015;28;20050;-80
2022/08/23 10:10:30;;;;;;;11.60;3.10;;;;;;;22.85;43.56;96432.78;4973154;28;20047;-79
2022/08/23 10:12:58;;;;;;;5.90;2.50;;;;;;;22.94;45.42;96435.97;4973969;28;20043;-79
2022/08/23 10:15:40;;;;;;;7.68;2.83;;;;;;;22.99;44.20;96443.13;4973665;28;20137;-77
2022/08/23 10:18:16;;;;;;;11.25;3.03;;;;;;;23.12;46.59;96430.41;4973601;28;20062;-78
2022/08/23 10:20:55;;;;;;;6.78;2.78;;;;;;;23.15;45.70;96427.63;4980666;28;20045;-79
2022/08/23 10:23:34;;;;;;;7.35;2.67;;;;;;;23.13;45.47;96426.47;4992911;28;20050;-78
2022/08/23 10:26:01;;;;;;;7.03;2.33;;;;;;;23.05;44.96;96419.31;4993529;28;20055;-79
2022/08/23 10:31:33;;;;;;;8.10;2.88;;;;;;;23.34;44.46;96420.09;4993003;28;21861;-79
2022/08/23 10:34:13;;;;;;;5.78;2.42;;;;;;;23.61;44.98;96418.44;4992845;28;20046;-78
2022/08/23 10:36:51;;;;;;;5.40;2.60;;;;;;;23.69;43.61;96420.00;4993361;28;20034;-79
2022/08/23 10:39:25;;;;;;;7.35;2.80;;;;;;;23.60;43.96;96418.84;4992828;28;20058;-79
2022/08/23 10:42:01;;;;;;;7.45;2.55;;;;;;;23.57;46.63;96416.84;4995115;28;20069;-79
2022/08/23 10:44:34;;;;;;;5.50;2.35;;;;;;;23.65;43.72;96418.44;4994335;28;20042;-79
2022/08/23 10:47:16;;;;;;;9.10;3.17;;;;;;;23.61;43.28;96415.66;4994351;28;20047;-79
2022/08/23 10:49:43;;;;;;;6.60;2.72;;;;;;;23.80;44.24;96419.19;4994885;28;20122;-81
2022/08/23 10:52:18;;;;;;;5.60;2.45;;;;;;;23.84;44.92;96415.19;4977036;28;20073;-80
2022/08/23 10:54:58;;;;;;;5.80;2.30;;;;;;;23.97;43.67;96412.78;4973772;28;20062;-80
2022/08/23 10:57:31;;;;;;;7.20;2.70;;;;;;;24.11;44.98;96418.25;4974060;28;20047;-80
2022/08/23 10:59:58;;;;;;;5.35;2.13;;;;;;;24.15;43.08;96410.69;4975037;28;20047;-80
2022/08/23 11:02:34;;;;;;;5.63;2.72;;;;;;;24.15;44.23;96407.91;4974179;28;20085;-77
2022/08/23 11:05:05;;;;;;;4.65;2.53;;;;;;;23.79;43.71;96414.81;4974692;28;20055;-79
2022/08/23 11:07:36;;;;;;;6.25;2.63;;;;;;;23.93;42.78;96409.22;4974555;28;20093;-80
2022/08/23 11:10:13;;;;;;;4.85;2.40;;;;;;;23.86;44.17;96406.47;4973911;28;20499;-77
2022/08/23 11:12:52;;;;;;;7.10;2.67;;;;;;;23.62;43.30;96403.31;4974292;28;20034;-79
2022/08/23 11:15:28;;;;;;;7.50;2.53;;;;;;;23.77;43.99;96392.97;4973852;28;20116;-78
2022/08/23 11:18:05;;;;;;;5.80;2.53;;;;;;;23.78;43.23;96391.00;4974050;28;20050;-78
2022/08/23 11:20:55;;;;;;;6.43;2.63;;;;;;;23.65;43.92;96401.78;4978852;28;20042;-78
2022/08/23 11:23:39;;;;;;;6.43;2.70;;;;;;;23.86;42.70;96398.13;4993729;28;20505;-79
2022/08/23 11:26:10;;;;;;;6.15;2.58;;;;;;;24.03;43.68;96394.47;4993052;28;20046;-80
2022/08/23 11:28:41;;;;;;;8.18;2.90;;;;;;;23.64;43.46;96394.59;4993284;28;20050;-78
2022/08/23 11:31:28;;;;;;;6.97;3.10;;;;;;;23.63;45.52;96393.81;4992747;28;20050;-79
2022/08/23 11:34:01;;;;;;;7.82;2.97;;;;;;;23.85;44.55;96397.31;4992227;28;20505;-78
2022/08/23 11:36:31;;;;;;;10.35;3.05;;;;;;;23.68;43.17;96387.84;4992611;28;20478;-78
2022/08/23 11:39:10;;;;;;;6.53;2.60;;;;;;;23.47;45.69;96390.66;4993275;28;20053;-78
2022/08/23 11:42:02;;;;;;;7.90;2.70;;;;;;;23.78;45.72;96393.78;4993584;28;20121;-79
2022/08/23 11:44:36;;;;;;;5.88;2.60;;;;;;;24.03;43.92;96391.69;4992899;28;20501;-79
2022/08/23 11:47:05;;;;;;;6.32;3.00;;;;;;;23.94;43.92;96391.31;4992229;28;20046;-79
2022/08/23 11:49:57;;;;;;;7.40;2.85;;;;;;;23.81;44.53;96392.97;4992335;28;20509;-79
2022/08/23 11:52:37;;;;;;;7.40;3.08;;;;;;;23.79;41.01;96387.00;4990460;28;20617;-78
2022/08/23 11:55:33;;;;;;;6.30;2.50;;;;;;;23.81;42.22;96391.00;4991544;28;20534;-79
2022/08/23 11:58:17;;;;;;;6.07;2.42;;;;;;;24.00;44.07;96392.47;4992125;28;20047;-78